Radium, Kansas
Current Conditions -  °F | °C
As of 4:35 PM on Sunday 23 Nov 2014 (Local Time) from KGBD Reporting Station
Few Clouds Few Clouds  
Wind Chill: 39°   Ceiling: Unl
Heat Index: 46°   Visibility: 10mi
Dew Point: 28°   Wind: 22mph
Humidity: 50%   Direction: 350°N
Pressure: 29.62"   Gusts: 28mph
Location:  38.1779°N, 99.1746°W
Report Text: KGBD 232235Z AUTO 35019G24KT 10SM FEW110 08/M02 A2962 RMK AO1
Loading
Personal Weather Stations






























Interactive Weather Map New forecast layout! Learn more

10-Day Weather Forecast

Advertisements
Track Severe Weather on mobile